Time;durP1;ratioP1;P1;durP2;ratioP2;P2;SDS_P1;SDS_P2;PMS_P1;PMS_P2;Temp;Humidity;BMP_temperature;BMP_pressure;BME280_temperature;BME280_humidity;BME280_pressure;Samples;Min_cycle;Max_cycle;Signal;HPM_P1;HPM_P2
2022/10/15 00:01:26;;;;;;;7.93;4.77;;;;;;;16.27;100.00;99797.84;5046248;28;20220;-65
2022/10/15 00:03:54;;;;;;;6.63;5.30;;;;;;;16.22;100.00;99794.91;5043508;28;20272;-65
2022/10/15 00:06:22;;;;;;;7.87;4.77;;;;;;;16.27;100.00;99779.91;5043221;28;20209;-65
2022/10/15 00:08:50;;;;;;;7.50;4.87;;;;;;;16.27;100.00;99771.88;5043150;28;20634;-65
2022/10/15 00:11:20;;;;;;;5.53;4.40;;;;;;;16.30;100.00;99786.72;5041500;28;20206;-65
2022/10/15 00:13:48;;;;;;;6.53;4.80;;;;;;;16.25;100.00;99791.84;5043143;28;20232;-65
2022/10/15 00:16:17;;;;;;;6.10;5.07;;;;;;;16.29;100.00;99795.75;5045795;28;20204;-65
2022/10/15 00:18:47;;;;;;;5.40;4.50;;;;;;;16.27;100.00;99795.16;5038149;28;20209;-65
2022/10/15 00:21:16;;;;;;;6.07;4.77;;;;;;;16.31;100.00;99791.03;5044401;28;20268;-65
2022/10/15 00:23:44;;;;;;;5.97;4.07;;;;;;;16.31;100.00;99796.41;5045320;28;20208;-65
2022/10/15 00:26:14;;;;;;;8.27;4.57;;;;;;;16.36;100.00;99789.41;5049520;28;20699;-65
2022/10/15 00:28:43;;;;;;;7.30;4.70;;;;;;;16.34;100.00;99788.81;5049303;28;20221;-65
2022/10/15 00:31:13;;;;;;;5.83;4.43;;;;;;;16.32;100.00;99787.34;5046164;28;20223;-65
2022/10/15 00:33:41;;;;;;;6.80;4.70;;;;;;;16.30;100.00;99792.06;5051184;28;20200;-65
2022/10/15 00:36:13;;;;;;;7.33;4.40;;;;;;;16.36;100.00;99788.59;5039240;28;20212;-66
2022/10/15 00:38:40;;;;;;;7.23;3.90;;;;;;;16.36;100.00;99791.28;5046822;28;20215;-65
2022/10/15 00:41:12;;;;;;;6.13;4.10;;;;;;;16.35;100.00;99790.44;5049597;28;20251;-65
2022/10/15 00:43:45;;;;;;;5.40;3.90;;;;;;;16.38;100.00;99789.19;5025421;28;20215;-66
2022/10/15 00:46:20;;;;;;;5.63;3.70;;;;;;;16.38;100.00;99786.53;5044026;28;20232;-65
2022/10/15 00:48:51;;;;;;;6.77;4.20;;;;;;;16.37;100.00;99782.19;5044109;28;20291;-65
2022/10/15 00:51:22;;;;;;;7.17;3.90;;;;;;;16.37;100.00;99788.38;5049488;28;20266;-66
2022/10/15 00:53:50;;;;;;;5.80;3.10;;;;;;;16.44;100.00;99788.41;5047339;28;20215;-65
2022/10/15 00:56:22;;;;;;;5.90;3.20;;;;;;;16.40;100.00;99781.81;5052791;28;20208;-65
2022/10/15 00:58:51;;;;;;;4.50;2.80;;;;;;;16.37;100.00;99772.31;5051228;28;20239;-65
2022/10/15 01:01:19;;;;;;;2.80;2.40;;;;;;;16.38;100.00;99773.16;5046557;28;20342;-65
2022/10/15 01:03:48;;;;;;;3.87;2.27;;;;;;;16.37;100.00;99766.97;5043127;28;20660;-65
2022/10/15 01:06:15;;;;;;;3.57;2.10;;;;;;;16.38;100.00;99767.78;5042771;28;20213;-65
2022/10/15 01:08:45;;;;;;;4.97;1.93;;;;;;;16.38;100.00;99762.44;5042104;28;20207;-65
2022/10/15 01:11:28;;;;;;;2.83;1.90;;;;;;;16.38;100.00;99757.94;5043769;28;20208;-65
2022/10/15 01:14:07;;;;;;;4.37;2.20;;;;;;;16.36;100.00;99769.88;5037700;28;20266;-65
2022/10/15 01:16:42;;;;;;;3.27;1.80;;;;;;;16.35;100.00;99773.56;5046117;28;20207;-66
2022/10/15 01:19:25;;;;;;;3.77;1.90;;;;;;;16.37;100.00;99763.47;5042742;28;20207;-65
2022/10/15 01:22:01;;;;;;;2.47;1.67;;;;;;;16.37;100.00;99771.50;5042368;28;20244;-65
2022/10/15 01:24:59;;;;;;;3.43;1.60;;;;;;;16.34;100.00;99777.28;5044348;28;20211;-65
2022/10/15 01:27:34;;;;;;;4.43;1.73;;;;;;;16.34;100.00;99774.59;5048612;28;20197;-64
2022/10/15 01:30:25;;;;;;;4.30;1.97;;;;;;;16.35;100.00;99776.25;5049413;28;20204;-65
2022/10/15 01:33:21;;;;;;;4.23;2.00;;;;;;;16.35;100.00;99771.72;5039346;28;20212;-65
2022/10/15 01:35:51;;;;;;;1.97;1.37;;;;;;;16.35;100.00;99768.22;5047443;28;20223;-65
2022/10/15 01:38:27;;;;;;;2.60;1.83;;;;;;;16.39;100.00;99769.44;5043342;28;20215;-65
2022/10/15 01:40:59;;;;;;;2.50;1.83;;;;;;;16.36;100.00;99769.88;5046609;28;20224;-65
2022/10/15 01:43:32;;;;;;;3.87;1.77;;;;;;;16.34;100.00;99766.56;5044388;28;20213;-65
2022/10/15 01:46:06;;;;;;;3.97;1.73;;;;;;;16.39;100.00;99774.81;5051393;28;20685;-65
2022/10/15 01:48:37;;;;;;;3.40;1.60;;;;;;;16.39;100.00;99772.13;5046613;28;20215;-65
2022/10/15 01:51:07;;;;;;;4.87;1.67;;;;;;;16.42;100.00;99761.84;5047147;28;20204;-65
2022/10/15 01:53:36;;;;;;;1.97;1.53;;;;;;;16.39;100.00;99759.56;5047410;28;20285;-65
2022/10/15 01:56:08;;;;;;;1.70;1.30;;;;;;;16.40;100.00;99760.41;5045950;28;20215;-66
2022/10/15 01:58:39;;;;;;;2.30;1.57;;;;;;;16.39;100.00;99759.56;5041169;28;20231;-65
2022/10/15 02:01:09;;;;;;;3.57;1.70;;;;;;;16.39;100.00;99758.75;5042362;28;20211;-65
2022/10/15 02:03:45;;;;;;;2.13;1.57;;;;;;;16.39;100.00;99756.91;5042461;28;20204;-65
2022/10/15 02:06:19;;;;;;;2.70;1.40;;;;;;;16.41;100.00;99756.69;5043196;28;20237;-64
2022/10/15 02:08:59;;;;;;;3.30;1.30;;;;;;;16.37;100.00;99758.94;5043925;28;20238;-65
2022/10/15 02:11:29;;;;;;;2.33;1.50;;;;;;;16.38;100.00;99755.25;5041925;28;20205;-66
2022/10/15 02:14:03;;;;;;;3.03;1.37;;;;;;;16.38;100.00;99746.41;5042876;28;20232;-65
2022/10/15 02:16:41;;;;;;;3.13;1.60;;;;;;;16.39;100.00;99742.69;5047285;28;20437;-64
2022/10/15 02:19:15;;;;;;;1.43;1.00;;;;;;;16.41;100.00;99748.69;5043986;28;20200;-65
2022/10/15 02:21:47;;;;;;;2.43;1.67;;;;;;;16.39;100.00;99756.91;5037419;28;20245;-65
2022/10/15 02:24:19;;;;;;;3.83;1.50;;;;;;;16.34;100.00;99755.88;5041379;28;20208;-66
2022/10/15 02:26:49;;;;;;;3.13;1.40;;;;;;;16.34;100.00;99761.22;5039916;28;20743;-66
2022/10/15 02:29:21;;;;;;;2.23;1.60;;;;;;;16.37;100.00;99750.91;5045263;28;20239;-65
2022/10/15 02:31:51;;;;;;;2.57;1.73;;;;;;;16.38;100.00;99759.78;5041067;28;20204;-66
2022/10/15 02:34:22;;;;;;;3.03;1.33;;;;;;;16.40;100.00;99749.69;5039000;28;20204;-66
2022/10/15 02:36:50;;;;;;;1.83;1.20;;;;;;;16.37;100.00;99761.63;5044332;28;20208;-64
2022/10/15 02:39:22;;;;;;;4.03;1.20;;;;;;;16.40;100.00;99757.72;5045247;28;20270;-64
2022/10/15 02:41:51;;;;;;;3.17;1.33;;;;;;;16.39;100.00;99756.06;5048178;28;20219;-64
2022/10/15 02:44:19;;;;;;;2.13;1.20;;;;;;;16.39;100.00;99764.09;5050515;28;20232;-64
2022/10/15 02:46:47;;;;;;;7.50;1.90;;;;;;;16.39;100.00;99764.09;5048216;28;20258;-64
2022/10/15 02:49:16;;;;;;;1.90;1.23;;;;;;;16.40;100.00;99763.91;5045984;28;20205;-64
2022/10/15 02:51:44;;;;;;;5.77;1.20;;;;;;;16.39;100.00;99772.13;5039655;28;20239;-64
2022/10/15 02:54:11;;;;;;;3.63;1.40;;;;;;;16.38;100.00;99776.66;5039856;28;20654;-64
2022/10/15 02:56:39;;;;;;;1.83;1.13;;;;;;;16.39;100.00;99774.81;5042196;28;20211;-64
2022/10/15 02:59:07;;;;;;;2.27;1.13;;;;;;;16.43;100.00;99781.41;5039297;28;20216;-65
2022/10/15 03:01:34;;;;;;;2.27;1.20;;;;;;;16.46;100.00;99764.94;5041245;28;20213;-65
2022/10/15 03:04:02;;;;;;;1.73;1.13;;;;;;;16.51;100.00;99767.84;5047050;28;20215;-65
2022/10/15 03:06:31;;;;;;;3.73;1.23;;;;;;;16.51;100.00;99757.97;5035242;28;20845;-64
2022/10/15 03:08:59;;;;;;;3.63;1.20;;;;;;;16.51;100.00;99763.31;5040031;28;20261;-65
2022/10/15 03:11:27;;;;;;;2.23;1.10;;;;;;;16.49;100.00;99756.50;5043242;28;20220;-64
2022/10/15 03:13:54;;;;;;;3.60;1.10;;;;;;;16.49;100.00;99765.38;5043930;28;20233;-65
2022/10/15 03:16:22;;;;;;;2.93;1.17;;;;;;;16.48;100.00;99776.25;5039292;28;20208;-65
2022/10/15 03:18:50;;;;;;;1.77;1.10;;;;;;;16.52;100.00;99769.50;5038959;28;20736;-64
2022/10/15 03:21:17;;;;;;;2.90;1.07;;;;;;;16.55;100.00;99761.03;5039741;28;20909;-64
2022/10/15 03:23:46;;;;;;;3.17;1.17;;;;;;;16.54;100.00;99767.41;5038718;28;20200;-64
2022/10/15 03:26:14;;;;;;;2.80;1.20;;;;;;;16.54;100.00;99762.06;5039371;28;20228;-65
2022/10/15 03:28:42;;;;;;;4.37;1.13;;;;;;;16.56;100.00;99776.06;5044739;28;20270;-64
2022/10/15 03:31:09;;;;;;;2.40;1.33;;;;;;;16.57;100.00;99775.03;5042270;28;20247;-65
2022/10/15 03:33:37;;;;;;;3.47;1.40;;;;;;;16.60;100.00;99777.31;5037820;28;20268;-65
2022/10/15 03:36:06;;;;;;;1.80;1.27;;;;;;;16.68;100.00;99779.00;5036905;28;20263;-64
2022/10/15 03:38:34;;;;;;;1.93;1.00;;;;;;;16.65;100.00;99777.56;5042023;28;21021;-66
2022/10/15 03:41:04;;;;;;;2.33;1.07;;;;;;;16.66;100.00;99781.06;5046215;28;20225;-66
2022/10/15 03:43:31;;;;;;;2.90;0.90;;;;;;;16.65;100.00;99790.94;5038926;28;20221;-66
2022/10/15 03:46:02;;;;;;;2.80;0.90;;;;;;;16.68;100.00;99789.72;5046322;28;20221;-65
2022/10/15 03:48:29;;;;;;;4.10;1.20;;;;;;;16.70;100.00;99793.03;5047246;28;20220;-65
2022/10/15 03:50:57;;;;;;;4.23;1.40;;;;;;;16.69;100.00;99797.56;5037711;28;20698;-66
2022/10/15 03:53:25;;;;;;;2.80;0.80;;;;;;;16.66;100.00;99789.91;5040346;28;20200;-66
2022/10/15 03:55:53;;;;;;;2.10;1.20;;;;;;;16.67;100.00;99799.59;5037393;28;20213;-64
2022/10/15 03:58:22;;;;;;;1.83;0.90;;;;;;;16.69;100.00;99797.56;5041392;28;20207;-65
2022/10/15 04:00:49;;;;;;;1.53;0.80;;;;;;;16.71;100.00;99800.03;5040163;28;20208;-64
2022/10/15 04:03:17;;;;;;;2.83;0.80;;;;;;;16.72;100.00;99794.44;5036630;28;20212;-64
2022/10/15 04:05:50;;;;;;;3.03;1.43;;;;;;;16.70;100.00;99799.19;5046599;28;20205;-64
2022/10/15 04:08:21;;;;;;;1.83;1.00;;;;;;;16.68;100.00;99800.44;5040286;28;20211;-64
2022/10/15 04:10:50;;;;;;;1.97;1.13;;;;;;;16.69;100.00;99799.41;5042581;28;20212;-64
2022/10/15 04:13:18;;;;;;;1.97;1.00;;;;;;;16.68;100.00;99811.97;5040334;28;20240;-64
2022/10/15 04:15:47;;;;;;;4.70;1.40;;;;;;;16.63;100.00;99803.69;5042040;28;20219;-65
2022/10/15 04:18:15;;;;;;;3.63;1.50;;;;;;;16.58;100.00;99811.50;5045448;28;20715;-64
2022/10/15 04:20:42;;;;;;;2.33;1.30;;;;;;;16.53;100.00;99813.97;5039716;28;20212;-64
2022/10/15 04:23:10;;;;;;;4.00;1.23;;;;;;;16.54;100.00;99815.59;5035806;28;20289;-63
2022/10/15 04:25:38;;;;;;;2.40;1.40;;;;;;;16.56;100.00;99816.22;5040498;28;20453;-64
2022/10/15 04:28:06;;;;;;;2.30;1.10;;;;;;;16.55;100.00;99817.25;5045621;28;20217;-65
2022/10/15 04:30:33;;;;;;;1.97;1.20;;;;;;;16.57;100.00;99812.50;5041565;28;20213;-64
2022/10/15 04:33:02;;;;;;;2.67;1.40;;;;;;;16.55;100.00;99825.28;5044588;28;20626;-65
2022/10/15 04:35:30;;;;;;;4.07;1.60;;;;;;;16.50;100.00;99836.59;5046429;28;20219;-65
2022/10/15 04:37:58;;;;;;;3.23;1.87;;;;;;;16.48;100.00;99832.47;5041628;28;20265;-65
2022/10/15 04:40:26;;;;;;;2.20;1.40;;;;;;;16.46;100.00;99823.81;5039761;28;20200;-64
2022/10/15 04:42:53;;;;;;;2.70;1.80;;;;;;;16.44;100.00;99825.88;5044216;28;20216;-65
2022/10/15 04:45:21;;;;;;;2.33;1.53;;;;;;;16.39;100.00;99817.63;5036916;28;20609;-65
2022/10/15 04:47:54;;;;;;;2.87;1.67;;;;;;;16.38;100.00;99823.97;5039414;28;20216;-65
2022/10/15 04:50:23;;;;;;;4.37;2.03;;;;;;;16.37;100.00;99825.00;5043314;28;20216;-65
2022/10/15 04:52:50;;;;;;;3.00;1.30;;;;;;;16.34;100.00;99830.78;5039212;28;20223;-65
2022/10/15 04:55:18;;;;;;;3.70;2.00;;;;;;;16.40;100.00;99829.97;5038963;28;20654;-65
2022/10/15 04:57:46;;;;;;;3.43;1.97;;;;;;;16.41;100.00;99831.63;5040730;28;20205;-65
2022/10/15 05:00:14;;;;;;;3.53;1.53;;;;;;;16.38;100.00;99840.03;5037536;28;20216;-65
2022/10/15 05:02:42;;;;;;;2.20;1.60;;;;;;;16.40;100.00;99840.66;5041379;28;20214;-65
2022/10/15 05:05:09;;;;;;;3.53;1.90;;;;;;;16.43;100.00;99842.97;5050910;28;20200;-66
2022/10/15 05:07:39;;;;;;;4.97;2.23;;;;;;;16.45;100.00;99846.22;5044662;28;20261;-65
2022/10/15 05:10:07;;;;;;;4.63;1.97;;;;;;;16.42;100.00;99842.13;5040679;28;20228;-65
2022/10/15 05:12:35;;;;;;;4.60;1.97;;;;;;;16.47;100.00;99841.50;5039568;28;20288;-66
2022/10/15 05:15:03;;;;;;;2.60;1.70;;;;;;;16.47;100.00;99841.50;5039933;28;20208;-66
2022/10/15 05:17:31;;;;;;;6.90;2.00;;;;;;;16.50;100.00;99846.47;5041983;28;20653;-66
2022/10/15 05:19:59;;;;;;;4.33;1.80;;;;;;;16.54;100.00;99842.34;5037538;28;20230;-66
2022/10/15 05:22:26;;;;;;;3.10;1.93;;;;;;;16.56;100.00;99851.00;5042463;28;20247;-66
2022/10/15 05:24:56;;;;;;;2.77;1.77;;;;;;;16.55;100.00;99846.69;5038718;28;20217;-66
2022/10/15 05:27:23;;;;;;;3.20;1.63;;;;;;;16.52;100.00;99855.13;5044746;28;20588;-66
2022/10/15 05:29:51;;;;;;;4.00;1.87;;;;;;;16.54;100.00;99863.75;5047184;28;20212;-66
2022/10/15 05:32:18;;;;;;;5.90;1.90;;;;;;;16.53;100.00;99860.25;5043999;28;20273;-66
2022/10/15 05:34:50;;;;;;;3.70;1.60;;;;;;;16.51;100.00;99864.19;5043946;28;20216;-65
2022/10/15 05:37:18;;;;;;;2.43;1.27;;;;;;;16.51;100.00;99864.19;5041924;28;20205;-65
2022/10/15 05:39:45;;;;;;;3.13;1.67;;;;;;;16.53;100.00;99870.16;5044940;28;20739;-65
2022/10/15 05:42:14;;;;;;;6.80;1.60;;;;;;;16.57;100.00;99876.75;5038835;28;20216;-66
2022/10/15 05:44:42;;;;;;;2.13;1.17;;;;;;;16.60;100.00;99883.56;5041598;28;20216;-65
2022/10/15 05:47:11;;;;;;;4.43;1.50;;;;;;;16.64;100.00;99888.31;5039167;28;20669;-64
2022/10/15 05:49:38;;;;;;;3.70;1.40;;;;;;;16.68;100.00;99897.63;5034602;28;20220;-65
2022/10/15 05:52:06;;;;;;;2.43;1.30;;;;;;;16.71;100.00;99902.56;5035000;28;20208;-65
2022/10/15 05:54:34;;;;;;;4.57;1.30;;;;;;;16.72;100.00;99898.84;5035785;28;20212;-65
2022/10/15 05:57:01;;;;;;;1.93;1.10;;;;;;;16.74;100.00;99907.50;5040653;28;20208;-65
2022/10/15 05:59:30;;;;;;;1.43;0.90;;;;;;;16.73;100.00;99903.19;5036004;28;20212;-65
2022/10/15 06:01:58;;;;;;;2.40;1.00;;;;;;;16.73;100.00;99913.06;5041703;28;20209;-65
2022/10/15 06:04:26;;;;;;;1.63;0.97;;;;;;;16.73;100.00;99918.41;5038423;28;20571;-65
2022/10/15 06:06:58;;;;;;;1.47;0.97;;;;;;;16.76;100.00;99918.84;5039294;28;20297;-65
2022/10/15 06:09:27;;;;;;;2.13;1.13;;;;;;;16.78;100.00;99930.19;5037067;28;20213;-64
2022/10/15 06:11:55;;;;;;;2.60;1.10;;;;;;;16.80;100.00;99917.41;5039095;28;20736;-65
2022/10/15 06:14:23;;;;;;;3.37;0.80;;;;;;;16.81;100.00;99919.06;5040436;28;20208;-64
2022/10/15 06:16:53;;;;;;;1.30;0.80;;;;;;;16.82;100.00;99917.22;5034847;28;20209;-64
2022/10/15 06:19:21;;;;;;;4.63;0.90;;;;;;;16.84;100.00;99924.03;5041049;28;20321;-64
2022/10/15 06:21:49;;;;;;;1.57;1.07;;;;;;;16.83;100.00;99917.00;5036739;28;20289;-64
2022/10/15 06:24:17;;;;;;;3.03;1.03;;;;;;;16.83;100.00;99922.38;5038669;28;20258;-65
2022/10/15 06:26:44;;;;;;;2.50;0.90;;;;;;;16.82;100.00;99918.03;5041577;28;20220;-65
2022/10/15 06:29:12;;;;;;;2.97;1.00;;;;;;;16.84;100.00;99925.88;5045561;28;20797;-64
2022/10/15 06:31:40;;;;;;;3.33;0.83;;;;;;;16.82;100.00;99925.25;5036997;28;20613;-66
2022/10/15 06:34:09;;;;;;;1.20;0.80;;;;;;;16.86;100.00;99945.25;5039087;28;20250;-65
2022/10/15 06:36:37;;;;;;;2.03;0.80;;;;;;;16.85;100.00;99941.75;5038453;28;20266;-65
2022/10/15 06:39:05;;;;;;;2.87;0.90;;;;;;;16.86;100.00;99954.13;5043480;28;20232;-65
2022/10/15 06:41:32;;;;;;;1.70;0.93;;;;;;;16.87;100.00;99953.09;5041325;28;20211;-65
2022/10/15 06:44:00;;;;;;;2.17;1.03;;;;;;;16.87;100.00;99945.06;5035517;28;20287;-64
2022/10/15 06:46:28;;;;;;;1.67;0.90;;;;;;;16.88;100.00;99948.56;5036112;28;20216;-64
2022/10/15 06:48:55;;;;;;;1.63;0.90;;;;;;;16.89;100.00;99958.22;5036928;28;20233;-65
2022/10/15 06:51:24;;;;;;;7.10;1.10;;;;;;;16.90;100.00;99960.69;5034945;28;20215;-64
2022/10/15 06:53:52;;;;;;;1.70;0.67;;;;;;;16.93;100.00;99960.31;5038561;28;20212;-65
2022/10/15 06:56:19;;;;;;;2.03;1.10;;;;;;;16.92;100.00;99958.66;5041469;28;20208;-64
2022/10/15 06:58:47;;;;;;;5.97;1.47;;;;;;;16.96;100.00;99968.97;5038689;28;20204;-65
2022/10/15 07:01:16;;;;;;;3.53;1.33;;;;;;;16.94;100.00;99966.50;5034132;28;20213;-65
2022/10/15 07:03:43;;;;;;;3.20;1.67;;;;;;;16.89;100.00;99959.03;5038925;28;20224;-65
2022/10/15 07:06:11;;;;;;;3.43;1.90;;;;;;;16.86;100.00;99959.47;5034571;28;20551;-65
2022/10/15 07:08:40;;;;;;;4.87;2.00;;;;;;;16.83;100.00;99970.56;5038014;28;20231;-65
2022/10/15 07:11:08;;;;;;;3.47;1.90;;;;;;;16.84;100.00;99977.56;5037677;28;20613;-65
2022/10/15 07:13:37;;;;;;;4.57;2.10;;;;;;;16.84;100.00;99977.56;5042654;28;20224;-65
2022/10/15 07:16:05;;;;;;;3.00;1.87;;;;;;;16.87;100.00;99987.91;5038553;28;20540;-66
2022/10/15 07:18:33;;;;;;;10.30;1.90;;;;;;;16.87;100.00;99993.25;5034242;28;20205;-65
2022/10/15 07:21:01;;;;;;;3.03;2.10;;;;;;;16.91;100.00;99985.63;5037658;28;20212;-65
2022/10/15 07:23:29;;;;;;;4.07;2.20;;;;;;;16.93;100.00;99986.25;5040693;28;20585;-65
2022/10/15 07:25:58;;;;;;;2.83;1.87;;;;;;;16.90;100.00;99986.66;5039194;28;20770;-66
2022/10/15 07:28:27;;;;;;;3.63;2.23;;;;;;;16.90;100.00;99987.47;5045836;28;20670;-65
2022/10/15 07:30:55;;;;;;;3.70;2.57;;;;;;;16.96;100.00;99987.72;5042634;28;20212;-65
2022/10/15 07:33:22;;;;;;;3.80;2.10;;;;;;;16.93;100.00;99986.25;5037881;28;20216;-66
2022/10/15 07:35:50;;;;;;;7.43;2.37;;;;;;;16.95;100.00;99983.38;5035117;28;20235;-66
2022/10/15 07:38:18;;;;;;;4.20;2.47;;;;;;;16.90;100.00;99986.66;5037467;28;20212;-65
2022/10/15 07:40:45;;;;;;;3.37;2.40;;;;;;;16.96;100.00;99995.75;5032657;28;20665;-65
2022/10/15 07:43:15;;;;;;;3.80;2.10;;;;;;;16.98;100.00;100005.22;5039330;28;20695;-65
2022/10/15 07:45:47;;;;;;;3.57;2.20;;;;;;;16.97;100.00;100002.75;5034933;28;20394;-66
2022/10/15 07:48:15;;;;;;;5.07;2.37;;;;;;;17.01;100.00;100004.00;5041890;28;20247;-66
2022/10/15 07:50:43;;;;;;;4.40;2.57;;;;;;;17.01;100.00;100002.16;5035022;28;20838;-65
2022/10/15 07:53:10;;;;;;;4.10;1.90;;;;;;;17.03;100.00;100002.78;5035283;28;20219;-67
2022/10/15 07:55:38;;;;;;;3.90;1.80;;;;;;;17.03;100.00;100002.78;5041708;28;20216;-64
2022/10/15 07:58:07;;;;;;;6.23;2.37;;;;;;;17.05;100.00;99997.22;5037641;28;20215;-64
2022/10/15 08:00:36;;;;;;;5.40;1.67;;;;;;;17.09;100.00;100012.69;5038861;28;20589;-65
2022/10/15 08:03:03;;;;;;;3.77;2.13;;;;;;;17.10;100.00;100014.34;5037145;28;20220;-66
2022/10/15 08:05:31;;;;;;;3.80;2.23;;;;;;;17.14;100.00;100004.88;5042224;28;20218;-65
2022/10/15 08:07:59;;;;;;;3.87;2.00;;;;;;;17.19;100.00;100012.31;5040292;28;20208;-65
2022/10/15 08:10:27;;;;;;;5.93;2.00;;;;;;;17.21;100.00;100020.97;5039744;28;20254;-64
2022/10/15 08:12:57;;;;;;;3.77;2.20;;;;;;;17.22;100.00;100017.28;5040872;28;20663;-66
2022/10/15 08:15:25;;;;;;;6.63;2.43;;;;;;;17.23;100.00;100014.38;5039983;28;20262;-65
2022/10/15 08:17:54;;;;;;;6.00;2.03;;;;;;;17.22;100.00;100017.28;5042140;28;20674;-65
2022/10/15 08:20:21;;;;;;;6.13;2.40;;;;;;;17.23;100.00;100013.56;5042444;28;20205;-66
2022/10/15 08:22:49;;;;;;;3.63;2.10;;;;;;;17.26;100.00;100026.53;5041807;28;20583;-65
2022/10/15 08:25:17;;;;;;;3.13;2.20;;;;;;;17.30;100.00;100020.59;5039887;28;20304;-66
2022/10/15 08:27:45;;;;;;;6.50;1.90;;;;;;;17.37;100.00;100028.63;5040938;28;20574;-66
2022/10/15 08:30:12;;;;;;;2.80;1.30;;;;;;;17.43;100.00;100024.31;5038217;28;20244;-65
2022/10/15 08:32:40;;;;;;;4.10;1.50;;;;;;;17.43;100.00;100025.13;5041559;28;20208;-66
2022/10/15 08:35:09;;;;;;;5.07;1.30;;;;;;;17.51;100.00;100026.78;5037344;28;20216;-66
2022/10/15 08:37:37;;;;;;;1.80;1.20;;;;;;;17.56;100.00;100025.16;5038178;28;20212;-66
2022/10/15 08:40:06;;;;;;;2.93;1.20;;;;;;;17.63;100.00;100023.34;5037819;28;20879;-66
2022/10/15 08:42:38;;;;;;;2.83;1.17;;;;;;;17.71;100.00;100021.50;5037175;28;20208;-66
2022/10/15 08:45:12;;;;;;;1.67;1.20;;;;;;;17.86;100.00;100019.44;5038727;28;20204;-66
2022/10/15 08:47:45;;;;;;;4.20;1.17;;;;;;;18.02;100.00;100014.50;5037262;28;20200;-66
2022/10/15 08:50:25;;;;;;;1.50;1.03;;;;;;;18.30;100.00;100019.59;5045309;28;20790;-66
2022/10/15 08:52:55;;;;;;;2.80;1.13;;;;;;;19.00;100.00;100019.84;5039420;28;20723;-67
2022/10/15 08:55:23;;;;;;;2.63;1.40;;;;;;;19.66;98.15;100016.81;5043516;28;20208;-65
2022/10/15 08:58:02;;;;;;;3.93;1.63;;;;;;;19.87;94.03;100006.50;5037218;28;20201;-66
2022/10/15 09:00:35;;;;;;;3.10;1.33;;;;;;;20.69;91.50;100012.56;5038303;28;20285;-65
2022/10/15 09:03:09;;;;;;;3.73;1.77;;;;;;;22.40;80.33;100017.31;5042377;28;20232;-65
2022/10/15 09:05:46;;;;;;;4.23;1.50;;;;;;;22.75;75.13;100014.59;5045293;28;20267;-66
2022/10/15 09:08:26;;;;;;;4.43;1.60;;;;;;;22.14;77.12;100022.13;5042998;28;20653;-66
2022/10/15 09:10:59;;;;;;;3.97;1.40;;;;;;;21.33;80.26;100017.38;5042653;28;20302;-66
2022/10/15 09:13:31;;;;;;;3.47;1.73;;;;;;;20.64;84.63;100015.94;5036696;28;20230;-66
2022/10/15 09:16:03;;;;;;;2.63;1.60;;;;;;;20.11;89.05;100020.19;5044334;28;20645;-65
2022/10/15 09:18:33;;;;;;;5.60;1.83;;;;;;;19.73;92.19;100023.78;5039398;28;20270;-65
2022/10/15 09:21:05;;;;;;;6.47;2.17;;;;;;;19.46;94.66;100022.28;5037947;28;21777;-65
2022/10/15 09:23:34;;;;;;;5.00;1.97;;;;;;;19.27;97.11;100028.59;5012582;28;20221;-65
2022/10/15 09:26:07;;;;;;;3.20;1.30;;;;;;;19.07;99.12;100024.16;5006851;28;20288;-65
2022/10/15 09:28:42;;;;;;;2.90;1.80;;;;;;;19.00;99.37;100023.34;5006773;28;20205;-66
2022/10/15 09:31:14;;;;;;;2.30;1.60;;;;;;;18.84;100.00;100028.38;5008470;28;20216;-64
2022/10/15 09:33:48;;;;;;;6.33;1.67;;;;;;;18.71;100.00;100024.72;5007032;28;20288;-65
2022/10/15 09:36:29;;;;;;;2.10;1.00;;;;;;;18.69;100.00;100021.41;5002947;28;20217;-65
2022/10/15 09:39:06;;;;;;;2.27;1.30;;;;;;;18.59;100.00;100021.03;5001574;28;20209;-65
2022/10/15 09:41:44;;;;;;;2.03;1.30;;;;;;;18.51;100.00;100020.41;5007471;28;20213;-66
2022/10/15 09:44:14;;;;;;;4.00;1.37;;;;;;;18.40;100.00;100024.56;5004473;28;20275;-65
2022/10/15 09:46:47;;;;;;;2.97;1.63;;;;;;;18.39;100.00;100029.09;5007372;28;20201;-66
2022/10/15 09:49:18;;;;;;;6.60;1.63;;;;;;;18.39;100.00;100039.00;5003812;28;20237;-65
2022/10/15 09:51:57;;;;;;;2.90;1.77;;;;;;;18.36;100.00;100032.22;5005071;28;20216;-66
2022/10/15 09:54:35;;;;;;;2.13;1.50;;;;;;;18.35;100.00;100029.72;5004257;28;20202;-66
2022/10/15 09:57:03;;;;;;;5.67;2.07;;;;;;;18.32;100.00;100043.56;5006383;28;20213;-65
2022/10/15 09:59:31;;;;;;;4.53;1.60;;;;;;;18.27;100.00;100044.19;5009637;28;20585;-66
2022/10/15 10:02:17;;;;;;;2.20;1.37;;;;;;;18.41;100.00;100029.72;5006839;28;20216;-66
2022/10/15 10:04:45;;;;;;;5.00;1.30;;;;;;;18.41;100.00;100045.81;5004140;28;20220;-67
2022/10/15 10:07:29;;;;;;;3.77;1.47;;;;;;;18.40;100.00;100038.81;5004472;28;20323;-66
2022/10/15 10:09:59;;;;;;;3.20;1.53;;;;;;;18.40;100.00;100044.16;5004933;28;20236;-65
2022/10/15 10:12:29;;;;;;;3.37;1.53;;;;;;;18.40;100.00;100043.34;5009433;28;20229;-65
2022/10/15 10:14:59;;;;;;;2.87;1.57;;;;;;;18.40;100.00;100040.66;5006442;28;20210;-65
2022/10/15 10:17:28;;;;;;;3.87;1.50;;;;;;;18.42;100.00;100042.09;5005603;28;20216;-65
2022/10/15 10:20:13;;;;;;;3.17;1.40;;;;;;;18.41;100.00;100040.44;5008310;28;20206;-66
2022/10/15 10:22:47;;;;;;;1.97;1.27;;;;;;;18.33;100.00;100046.03;5024874;28;20252;-66
2022/10/15 10:25:37;;;;;;;2.60;1.27;;;;;;;18.38;100.00;100045.44;5037868;28;20255;-66
2022/10/15 10:28:15;;;;;;;2.50;1.27;;;;;;;18.31;100.00;100052.66;5039665;28;20720;-66
2022/10/15 10:30:55;;;;;;;4.30;1.40;;;;;;;18.37;100.00;100052.66;5026098;28;20239;-66
2022/10/15 10:33:29;;;;;;;3.97;1.50;;;;;;;18.35;100.00;100049.34;5038206;28;20209;-66
2022/10/15 10:35:57;;;;;;;5.87;1.47;;;;;;;18.38;100.00;100051.59;5036827;28;20654;-66
2022/10/15 10:38:29;;;;;;;1.87;1.20;;;;;;;18.40;100.00;100056.75;5037160;28;20876;-65
2022/10/15 10:41:04;;;;;;;2.53;0.90;;;;;;;18.39;100.00;100058.63;5032883;28;20204;-65
2022/10/15 10:43:34;;;;;;;2.17;1.17;;;;;;;18.44;100.00;100047.28;5034794;28;20212;-65
2022/10/15 10:46:17;;;;;;;4.30;1.00;;;;;;;18.69;100.00;100037.53;5037388;28;20236;-65
2022/10/15 10:48:47;;;;;;;1.57;0.93;;;;;;;19.10;100.00;100034.47;5045163;28;20206;-66
2022/10/15 10:51:16;;;;;;;1.13;0.70;;;;;;;19.29;100.00;100023.84;5032779;28;20231;-65
2022/10/15 10:53:52;;;;;;;1.17;0.70;;;;;;;19.31;100.00;100021.75;5036827;28;20216;-66
2022/10/15 10:56:24;;;;;;;2.77;1.10;;;;;;;19.10;100.00;100018.34;5033702;28;20265;-66
2022/10/15 10:58:57;;;;;;;3.63;1.17;;;;;;;19.01;100.00;100030.38;5035051;28;20208;-66
2022/10/15 11:01:25;;;;;;;1.73;1.00;;;;;;;18.97;100.00;100031.03;5048683;28;20203;-66
2022/10/15 11:03:53;;;;;;;5.53;1.20;;;;;;;18.89;100.00;100020.53;5037423;28;20212;-65
2022/10/15 11:06:28;;;;;;;2.70;0.97;;;;;;;18.82;100.00;100019.72;5035522;28;20208;-66
2022/10/15 11:09:08;;;;;;;4.03;1.20;;;;;;;18.78;100.00;100027.38;5042270;28;20200;-65
2022/10/15 11:11:45;;;;;;;2.80;1.03;;;;;;;18.76;100.00;100030.28;5032383;28;20278;-65
2022/10/15 11:14:21;;;;;;;3.07;1.10;;;;;;;18.72;100.00;100026.38;5036472;28;20216;-66
2022/10/15 11:16:57;;;;;;;3.83;1.23;;;;;;;18.70;100.00;100022.25;5042542;28;20653;-65
2022/10/15 11:19:32;;;;;;;2.77;1.10;;;;;;;18.73;100.00;100021.84;5037424;28;20203;-66
2022/10/15 11:22:37;;;;;;;3.47;1.00;;;;;;;18.80;100.00;100017.25;5037205;28;20233;-66
2022/10/15 11:25:18;;;;;;;2.57;1.03;;;;;;;18.84;100.00;100012.25;5028584;28;20262;-65
2022/10/15 11:28:01;;;;;;;2.17;1.00;;;;;;;18.91;100.00;100019.25;5040446;28;20604;-65
2022/10/15 11:30:43;;;;;;;2.47;1.20;;;;;;;18.87;100.00;100011.84;5032603;28;20263;-66
2022/10/15 11:33:31;;;;;;;3.47;1.20;;;;;;;18.87;100.00;100010.00;5038411;28;20422;-66
2022/10/15 11:36:10;;;;;;;3.60;0.90;;;;;;;18.88;100.00;100014.31;5035143;28;20567;-66
2022/10/15 11:38:44;;;;;;;1.87;1.00;;;;;;;19.86;100.00;100012.94;5047187;28;20262;-66